Time;durP1;ratioP1;P1;durP2;ratioP2;P2;SDS_P1;SDS_P2;PMS_P1;PMS_P2;Temp;Humidity;BMP_temperature;BMP_pressure;BME280_temperature;BME280_humidity;BME280_pressure;Samples;Min_cycle;Max_cycle;Signal;HPM_P1;HPM_P2
2023/05/20 00:01:56;;;;;;;14.35;8.38;;;;;;;14.46;100.00;94476.38;5097938;28;20038;-83
2023/05/20 00:04:22;;;;;;;16.10;8.45;;;;;;;14.57;100.00;94477.78;5097751;28;20513;-83
2023/05/20 00:06:47;;;;;;;16.55;8.20;;;;;;;14.40;100.00;94475.69;5097414;28;20034;-83
2023/05/20 00:09:13;;;;;;;12.90;8.10;;;;;;;14.56;100.00;94474.34;5097943;28;20023;-83
2023/05/20 00:11:38;;;;;;;16.25;9.25;;;;;;;14.23;100.00;94471.72;5097733;28;20039;-83
2023/05/20 00:14:03;;;;;;;19.02;8.40;;;;;;;14.36;100.00;94464.91;5080567;28;20035;-83
2023/05/20 00:16:29;;;;;;;11.48;7.97;;;;;;;14.45;100.00;94466.91;5115975;28;20034;-83
2023/05/20 00:18:55;;;;;;;15.05;8.00;;;;;;;14.54;100.00;94459.88;5115937;28;20118;-83
2023/05/20 00:21:21;;;;;;;12.90;8.05;;;;;;;14.39;100.00;94456.44;5115884;28;20606;-83
2023/05/20 00:23:46;;;;;;;12.98;8.00;;;;;;;14.54;100.00;94460.69;5080995;28;20028;-83
2023/05/20 00:26:12;;;;;;;12.48;7.65;;;;;;;14.60;100.00;94465.84;5097802;28;20038;-83
2023/05/20 00:28:37;;;;;;;11.70;7.55;;;;;;;14.73;100.00;94461.72;5115879;28;20334;-83
2023/05/20 00:31:03;;;;;;;11.50;6.90;;;;;;;14.61;100.00;94456.88;5080972;28;20031;-83
2023/05/20 00:33:29;;;;;;;14.85;8.38;;;;;;;13.87;100.00;94445.91;5097357;28;20027;-83
2023/05/20 00:35:54;;;;;;;17.17;7.72;;;;;;;14.27;100.00;94443.72;5115663;28;20035;-83
2023/05/20 00:38:20;;;;;;;14.48;8.10;;;;;;;14.49;100.00;94439.69;5097464;28;20031;-83
2023/05/20 00:40:45;;;;;;;16.15;8.27;;;;;;;14.59;100.00;94435.28;5115487;28;20100;-83
2023/05/20 00:43:10;;;;;;;13.35;8.45;;;;;;;14.62;100.00;94432.88;5115409;28;20023;-83
2023/05/20 00:45:37;;;;;;;18.42;8.13;;;;;;;14.85;100.00;94425.13;5097080;28;20027;-83
2023/05/20 00:48:03;;;;;;;14.50;8.88;;;;;;;14.17;100.00;94430.69;5080569;28;20490;-83
2023/05/20 00:50:29;;;;;;;14.52;8.23;;;;;;;14.14;100.00;94436.56;5115592;28;20658;-83
2023/05/20 00:52:54;;;;;;;13.90;8.13;;;;;;;14.53;100.00;94430.13;5080146;28;20027;-83
2023/05/20 00:55:20;;;;;;;15.57;8.55;;;;;;;14.80;100.00;94426.00;5097104;28;20091;-83
2023/05/20 00:57:49;;;;;;;16.83;8.32;;;;;;;14.71;100.00;94435.59;5097198;28;20027;-83
2023/05/20 01:00:15;;;;;;;12.38;8.18;;;;;;;14.80;100.00;94425.19;5097115;28;20028;-83
2023/05/20 01:02:40;;;;;;;14.95;7.63;;;;;;;14.83;100.00;94430.66;5097158;28;20023;-83
2023/05/20 01:05:06;;;;;;;14.35;8.38;;;;;;;14.66;100.00;94419.88;5080453;28;20420;-83
2023/05/20 01:07:32;;;;;;;16.73;7.32;;;;;;;14.78;100.00;94424.72;5080482;28;20055;-83
2023/05/20 01:09:58;;;;;;;15.70;8.73;;;;;;;14.20;100.00;94427.50;5097172;28;20035;-84
2023/05/20 01:12:31;;;;;;;17.15;8.98;;;;;;;14.52;100.00;94435.66;5097194;28;20387;-83
2023/05/20 01:15:10;;;;;;;18.75;8.73;;;;;;;14.45;100.00;94422.88;5080339;28;20035;-83
2023/05/20 01:17:39;;;;;;;20.88;9.63;;;;;;;14.06;100.00;94418.75;5097121;28;20422;-83
2023/05/20 01:20:08;;;;;;;15.13;8.20;;;;;;;14.51;100.00;94419.09;5099607;28;20173;-83
2023/05/20 01:22:36;;;;;;;12.82;8.02;;;;;;;14.60;100.00;94419.19;5101400;28;20031;-83
2023/05/20 01:25:01;;;;;;;15.98;7.75;;;;;;;14.65;100.00;94413.81;5100916;28;20031;-83
2023/05/20 01:27:29;;;;;;;11.90;7.60;;;;;;;14.66;100.00;94407.47;5119238;28;20080;-83
2023/05/20 01:29:54;;;;;;;10.90;6.80;;;;;;;14.72;100.00;94408.19;5119291;28;20024;-84
2023/05/20 01:32:47;;;;;;;13.95;8.38;;;;;;;14.21;100.00;94405.34;5101028;28;20035;-83
2023/05/20 01:35:13;;;;;;;18.60;8.63;;;;;;;13.86;100.00;94394.31;5106111;28;20452;-84
2023/05/20 01:37:40;;;;;;;15.35;8.30;;;;;;;14.30;100.00;94396.78;5101223;28;20023;-83
2023/05/20 01:40:11;;;;;;;13.77;7.75;;;;;;;14.46;100.00;94387.53;5102580;28;20110;-84
2023/05/20 01:42:37;;;;;;;13.25;7.93;;;;;;;14.33;100.00;94391.72;5102560;28;20020;-84
2023/05/20 01:45:03;;;;;;;16.55;9.00;;;;;;;13.85;100.00;94390.09;5104832;27;20481;-84
2023/05/20 01:47:30;;;;;;;16.80;7.97;;;;;;;14.35;100.00;94391.44;5115149;28;20192;-84
2023/05/20 01:49:55;;;;;;;13.25;7.40;;;;;;;14.45;100.00;94380.69;5105194;27;20450;-84
2023/05/20 01:52:21;;;;;;;11.95;7.45;;;;;;;14.55;100.00;94372.59;5101631;27;20126;-84
2023/05/20 01:54:49;;;;;;;11.20;7.05;;;;;;;14.64;100.00;94369.31;5116748;27;20037;-84
2023/05/20 01:57:20;;;;;;;11.90;6.63;;;;;;;14.75;100.00;94370.69;5120665;27;20389;-84
2023/05/20 01:59:46;;;;;;;13.05;5.97;;;;;;;14.40;100.00;94372.88;5122760;27;20075;-84
2023/05/20 02:02:12;;;;;;;12.45;6.68;;;;;;;14.53;100.00;94366.84;5122588;27;20413;-84
2023/05/20 02:04:37;;;;;;;11.35;6.85;;;;;;;14.50;100.00;94370.06;5105246;27;20083;-84
2023/05/20 02:07:03;;;;;;;13.80;6.90;;;;;;;14.13;100.00;94367.28;5105878;27;20030;-84
2023/05/20 02:09:28;;;;;;;12.25;6.47;;;;;;;14.01;100.00;94361.69;5121611;27;20031;-84
2023/05/20 02:11:54;;;;;;;11.70;6.65;;;;;;;14.28;100.00;94363.59;5118952;28;20031;-84
2023/05/20 02:14:19;;;;;;;15.15;7.68;;;;;;;13.68;100.00;94357.19;5118874;28;20392;-84
2023/05/20 02:16:47;;;;;;;12.55;7.15;;;;;;;14.26;100.00;94359.66;5120142;28;20029;-84
2023/05/20 02:19:18;;;;;;;216.38;12.32;;;;;;;14.04;100.00;94355.03;5119976;28;20028;-84
2023/05/20 02:21:45;;;;;;;13.43;7.70;;;;;;;14.44;100.00;94355.41;5120097;28;20023;-84
2023/05/20 02:24:11;;;;;;;215.52;13.73;;;;;;;14.11;100.00;94352.81;5118786;28;20050;-84
2023/05/20 02:26:36;;;;;;;9.15;6.15;;;;;;;14.03;100.00;94350.84;5118847;28;20031;-84
2023/05/20 02:29:02;;;;;;;11.55;6.85;;;;;;;14.35;100.00;94349.28;5118643;28;20035;-84
2023/05/20 02:31:27;;;;;;;12.48;7.60;;;;;;;14.43;100.00;94345.94;5117929;28;20035;-84
2023/05/20 02:33:52;;;;;;;13.02;8.05;;;;;;;14.53;100.00;94345.75;5117024;28;20032;-84
2023/05/20 02:36:18;;;;;;;13.75;7.80;;;;;;;14.58;100.00;94339.63;5117876;28;20031;-84
2023/05/20 02:38:43;;;;;;;13.48;7.93;;;;;;;14.47;100.00;94339.00;5117813;28;20106;-83
2023/05/20 02:41:09;;;;;;;115.63;11.60;;;;;;;14.01;100.00;94337.97;5116515;28;20062;-84
2023/05/20 02:43:35;;;;;;;189.00;13.63;;;;;;;13.70;100.00;94328.72;5118512;28;20027;-84
2023/05/20 02:46:01;;;;;;;29.23;8.55;;;;;;;13.73;100.00;94329.19;5101313;28;20114;-84
2023/05/20 02:48:27;;;;;;;13.65;7.93;;;;;;;14.14;100.00;94324.06;5118381;28;20077;-84
2023/05/20 02:50:52;;;;;;;14.38;6.95;;;;;;;14.26;100.00;94318.31;5101322;28;20040;-84
2023/05/20 02:53:17;;;;;;;25.52;7.05;;;;;;;14.30;100.00;94323.78;5118237;28;20081;-83
2023/05/20 02:55:46;;;;;;;12.10;6.35;;;;;;;14.42;100.00;94323.28;5119314;28;20084;-83
2023/05/20 02:58:12;;;;;;;21.42;8.30;;;;;;;13.97;100.00;94321.16;5118156;28;20027;-83
2023/05/20 03:00:39;;;;;;;12.52;6.93;;;;;;;13.97;100.00;94319.34;5118147;28;20498;-83
2023/05/20 03:03:06;;;;;;;15.00;6.60;;;;;;;14.27;100.00;94322.50;5118167;28;20330;-83
2023/05/20 03:05:44;;;;;;;12.32;6.80;;;;;;;14.28;100.00;94315.38;5118002;28;20035;-83
2023/05/20 03:08:10;;;;;;;14.02;7.70;;;;;;;14.11;100.00;94321.22;5118081;28;20023;-84
2023/05/20 03:10:37;;;;;;;14.23;7.80;;;;;;;13.54;100.00;94322.13;5117830;28;20082;-83
2023/05/20 03:13:10;;;;;;;13.80;7.40;;;;;;;14.14;100.00;94321.41;5101064;28;20023;-83
2023/05/20 03:15:38;;;;;;;13.80;8.13;;;;;;;13.50;100.00;94313.25;5101102;28;20027;-84
2023/05/20 03:18:05;;;;;;;14.15;7.22;;;;;;;14.05;100.00;94315.25;5117790;28;20034;-84
2023/05/20 03:20:37;;;;;;;13.05;7.10;;;;;;;14.10;100.00;94317.78;5118914;28;20030;-83
2023/05/20 03:23:03;;;;;;;13.70;7.95;;;;;;;14.18;100.00;94307.66;5117689;28;20348;-84
2023/05/20 03:25:28;;;;;;;14.35;6.75;;;;;;;14.26;100.00;94302.50;5117469;28;20035;-84
2023/05/20 03:27:54;;;;;;;18.35;7.53;;;;;;;13.97;100.00;94311.44;5117660;28;20083;-83
2023/05/20 03:30:19;;;;;;;13.50;7.45;;;;;;;14.16;100.00;94307.94;5117560;28;20031;-84
2023/05/20 03:32:45;;;;;;;16.20;8.13;;;;;;;14.31;100.00;94304.25;5117405;27;20038;-84
2023/05/20 03:35:10;;;;;;;15.68;8.13;;;;;;;14.32;100.00;94305.03;5099966;27;20026;-84
2023/05/20 03:37:36;;;;;;;15.15;7.75;;;;;;;14.35;100.00;94296.56;5103292;28;20456;-84
2023/05/20 03:40:05;;;;;;;15.32;9.20;;;;;;;14.45;100.00;94290.31;5093736;27;20432;-84
2023/05/20 03:42:31;;;;;;;14.88;8.25;;;;;;;14.28;100.00;94300.34;5091831;28;20106;-84
2023/05/20 03:44:58;;;;;;;18.13;9.50;;;;;;;14.30;100.00;94294.00;5114654;27;20027;-84
2023/05/20 03:47:24;;;;;;;13.30;7.50;;;;;;;14.23;100.00;94292.53;5108037;28;20031;-84
2023/05/20 03:49:50;;;;;;;13.38;7.85;;;;;;;14.28;100.00;94295.06;5118268;28;20019;-84
2023/05/20 03:52:15;;;;;;;20.23;8.70;;;;;;;14.33;100.00;94293.41;5083275;28;20081;-84
2023/05/20 03:54:41;;;;;;;21.00;10.52;;;;;;;13.98;100.00;94289.28;5099916;28;20020;-84
2023/05/20 03:57:06;;;;;;;17.30;9.23;;;;;;;13.97;100.00;94294.84;5099977;28;20023;-84
2023/05/20 03:59:32;;;;;;;19.70;10.15;;;;;;;14.32;100.00;94297.13;5099978;28;20026;-84
2023/05/20 04:01:57;;;;;;;22.25;10.20;;;;;;;14.17;100.00;94298.97;5099894;28;20412;-84
2023/05/20 04:04:23;;;;;;;20.45;10.52;;;;;;;14.03;100.00;94292.91;5082871;28;20444;-84
2023/05/20 04:06:48;;;;;;;19.80;10.48;;;;;;;14.10;100.00;94301.22;5099729;28;20084;-84
2023/05/20 04:09:14;;;;;;;17.67;9.70;;;;;;;14.29;100.00;94295.88;5117996;28;20019;-84
2023/05/20 04:11:40;;;;;;;18.25;10.60;;;;;;;14.47;100.00;94286.28;5117821;28;20072;-84
2023/05/20 04:14:05;;;;;;;17.38;9.13;;;;;;;14.51;100.00;94282.00;5117811;28;20039;-84
2023/05/20 04:16:31;;;;;;;17.42;9.07;;;;;;;14.12;100.00;94283.25;5099950;28;20031;-84
2023/05/20 04:18:57;;;;;;;18.17;9.57;;;;;;;14.47;100.00;94282.88;5099849;28;20031;-84
2023/05/20 04:21:23;;;;;;;18.27;10.20;;;;;;;14.34;100.00;94285.22;5099642;28;20024;-84
2023/05/20 04:23:48;;;;;;;15.73;8.80;;;;;;;14.50;100.00;94269.91;5099518;28;20459;-84
2023/05/20 04:26:14;;;;;;;16.25;8.65;;;;;;;14.65;100.00;94275.94;5082698;28;20055;-83
2023/05/20 04:28:40;;;;;;;20.60;9.63;;;;;;;14.55;100.00;94275.06;5107362;27;20023;-84
2023/05/20 04:31:07;;;;;;;19.25;9.25;;;;;;;14.70;100.00;94276.63;5120036;27;20027;-84
2023/05/20 04:33:36;;;;;;;18.73;9.05;;;;;;;14.52;100.00;94273.03;5119758;28;20038;-83
2023/05/20 04:36:04;;;;;;;17.45;8.80;;;;;;;14.83;100.00;94272.41;5120330;27;20030;-83
2023/05/20 04:38:31;;;;;;;16.83;8.88;;;;;;;14.52;100.00;94267.75;5103106;27;20028;-83
2023/05/20 04:40:57;;;;;;;18.77;9.23;;;;;;;14.37;100.00;94265.41;5102976;27;20351;-83
2023/05/20 04:43:23;;;;;;;16.00;8.18;;;;;;;14.33;100.00;94259.94;5119707;27;20106;-84
2023/05/20 04:45:49;;;;;;;14.60;8.52;;;;;;;14.42;100.00;94260.03;5119299;27;20037;-83
2023/05/20 04:48:15;;;;;;;18.33;9.23;;;;;;;14.44;100.00;94257.13;5119578;27;20026;-83
2023/05/20 04:50:40;;;;;;;15.77;9.02;;;;;;;14.72;100.00;94265.03;5119480;27;20033;-84
2023/05/20 04:53:06;;;;;;;18.38;9.93;;;;;;;14.31;100.00;94271.84;5119271;27;20034;-84
2023/05/20 04:55:32;;;;;;;19.38;9.68;;;;;;;14.32;100.00;94266.28;5119261;27;20027;-84
2023/05/20 04:57:57;;;;;;;24.38;10.88;;;;;;;14.39;100.00;94276.44;5102565;27;20035;-84
2023/05/20 05:00:23;;;;;;;20.52;10.35;;;;;;;14.34;100.00;94274.69;5119390;28;20412;-83
2023/05/20 05:02:49;;;;;;;18.88;9.32;;;;;;;14.40;100.00;94270.09;5119465;27;20072;-84
2023/05/20 05:05:14;;;;;;;23.92;11.15;;;;;;;14.48;100.00;94272.03;5119486;28;20423;-84
2023/05/20 05:07:40;;;;;;;23.55;11.35;;;;;;;14.14;100.00;94273.22;5119346;28;20447;-83
2023/05/20 05:10:06;;;;;;;24.75;10.57;;;;;;;14.49;100.00;94268.34;5119316;28;20031;-84
2023/05/20 05:12:31;;;;;;;19.48;10.95;;;;;;;14.68;100.00;94264.81;5137803;28;20035;-83
2023/05/20 05:14:57;;;;;;;19.45;9.60;;;;;;;14.84;100.00;94268.72;5137450;28;20030;-84
2023/05/20 05:17:23;;;;;;;20.58;10.73;;;;;;;14.63;100.00;94268.31;5102742;28;20031;-83
2023/05/20 05:19:48;;;;;;;21.52;11.77;;;;;;;14.74;100.00;94270.78;5137418;28;20031;-83
2023/05/20 05:22:14;;;;;;;36.40;16.40;;;;;;;14.34;100.00;94268.63;5119192;28;20023;-83
2023/05/20 05:24:39;;;;;;;32.35;15.73;;;;;;;14.42;100.00;94260.81;5119016;28;20037;-83
2023/05/20 05:27:04;;;;;;;33.45;16.23;;;;;;;14.50;100.00;94272.53;5119174;28;20031;-83
2023/05/20 05:29:30;;;;;;;34.78;16.52;;;;;;;14.40;100.00;94265.59;5102309;28;20035;-84
2023/05/20 05:31:55;;;;;;;28.63;13.82;;;;;;;14.62;100.00;94266.75;5102279;28;20035;-83
2023/05/20 05:34:21;;;;;;;31.80;15.88;;;;;;;14.92;100.00;94263.78;5118931;28;20038;-84
2023/05/20 05:36:46;;;;;;;32.78;16.17;;;;;;;14.77;100.00;94262.28;5119090;28;20107;-84
2023/05/20 05:39:12;;;;;;;30.20;14.52;;;;;;;14.77;100.00;94263.03;5101899;28;20039;-83
2023/05/20 05:41:37;;;;;;;30.40;14.48;;;;;;;14.62;100.00;94263.31;5119080;28;20035;-84
2023/05/20 05:44:03;;;;;;;36.45;16.00;;;;;;;14.69;100.00;94266.34;5102082;28;20023;-83
2023/05/20 05:46:32;;;;;;;33.92;16.25;;;;;;;14.49;100.00;94263.06;5101811;28;20116;-90
2023/05/20 05:48:57;;;;;;;31.40;14.30;;;;;;;14.65;100.00;94260.88;5102783;28;20070;-85
2023/05/20 05:51:26;;;;;;;29.50;13.60;;;;;;;14.45;100.00;94261.31;5137095;28;20055;-85
2023/05/20 05:53:52;;;;;;;474.92;30.30;;;;;;;14.34;100.00;94255.44;5117741;28;20055;-84
2023/05/20 05:56:17;;;;;;;34.80;14.45;;;;;;;14.41;100.00;94261.09;5116498;28;20040;-85
2023/05/20 05:58:43;;;;;;;35.33;15.57;;;;;;;14.22;100.00;94262.00;5098386;28;20429;-83
2023/05/20 06:01:08;;;;;;;28.10;14.20;;;;;;;14.68;100.00;94264.81;5126639;28;20031;-83
2023/05/20 06:03:33;;;;;;;31.73;14.02;;;;;;;14.97;100.00;94266.34;5108200;28;20080;-82
2023/05/20 06:05:59;;;;;;;22.20;10.35;;;;;;;14.84;100.00;94260.78;5133392;27;20031;-82
2023/05/20 06:08:25;;;;;;;22.38;10.05;;;;;;;14.93;100.00;94260.09;5116808;28;20031;-83
2023/05/20 06:10:50;;;;;;;27.20;13.00;;;;;;;14.89;100.00;94259.91;5102128;28;20088;-83
2023/05/20 06:13:16;;;;;;;21.75;10.90;;;;;;;14.98;100.00;94262.63;5119016;28;20032;-83
2023/05/20 06:15:42;;;;;;;18.25;9.40;;;;;;;14.66;100.00;94264.31;5118923;28;20337;-83
2023/05/20 06:18:07;;;;;;;16.67;8.65;;;;;;;14.91;100.00;94263.03;5119857;28;20035;-83
2023/05/20 06:20:33;;;;;;;15.98;8.13;;;;;;;14.23;100.00;94266.19;5120084;28;20027;-83
2023/05/20 06:22:58;;;;;;;18.30;8.88;;;;;;;14.69;100.00;94264.50;5098813;27;20121;-82
2023/05/20 06:25:24;;;;;;;16.48;7.97;;;;;;;14.55;100.00;94258.44;5122030;27;20422;-82
2023/05/20 06:27:50;;;;;;;13.77;7.50;;;;;;;14.95;100.00;94263.97;5140232;27;20039;-82
2023/05/20 06:30:15;;;;;;;14.23;7.60;;;;;;;14.57;100.00;94262.38;5121978;27;20470;-82
2023/05/20 06:32:41;;;;;;;14.32;7.53;;;;;;;14.95;100.00;94260.59;5140160;27;20100;-83
2023/05/20 06:35:07;;;;;;;14.43;7.78;;;;;;;15.16;100.00;94265.41;5121695;27;20416;-82
2023/05/20 06:37:32;;;;;;;17.23;8.93;;;;;;;15.28;100.00;94268.28;5119820;27;20114;-82
2023/05/20 06:39:58;;;;;;;15.23;8.13;;;;;;;15.44;100.00;94271.38;5095837;27;20115;-82
2023/05/20 06:42:23;;;;;;;11.05;6.45;;;;;;;14.82;100.00;94265.59;5121789;27;20034;-82
2023/05/20 06:44:49;;;;;;;11.35;6.32;;;;;;;14.96;100.00;94272.69;5121443;27;20340;-82
2023/05/20 06:47:16;;;;;;;11.02;5.72;;;;;;;15.06;100.00;94266.41;5139634;27;20026;-82
2023/05/20 06:49:42;;;;;;;13.23;7.18;;;;;;;14.98;100.00;94266.03;5139809;27;20340;-82
2023/05/20 06:52:07;;;;;;;10.77;5.75;;;;;;;15.23;100.00;94266.53;5121450;27;20026;-82
2023/05/20 06:54:38;;;;;;;14.05;5.80;;;;;;;15.65;100.00;94271.66;5121368;27;20076;-82
2023/05/20 06:57:05;;;;;;;12.70;6.22;;;;;;;15.40;100.00;94263.25;5122059;27;20346;-83
2023/05/20 06:59:30;;;;;;;9.30;5.63;;;;;;;15.70;100.00;94254.88;5121981;27;20038;-83
2023/05/20 07:01:55;;;;;;;10.32;6.18;;;;;;;15.45;100.00;94251.00;5120895;27;20027;-82
2023/05/20 07:04:21;;;;;;;9.73;5.90;;;;;;;15.80;100.00;94261.81;5102546;27;20027;-83
2023/05/20 07:06:46;;;;;;;9.10;5.25;;;;;;;15.80;100.00;94259.91;5139639;27;20105;-83
2023/05/20 07:09:11;;;;;;;8.20;5.35;;;;;;;15.56;100.00;94260.25;5121218;27;20027;-83
2023/05/20 07:11:37;;;;;;;7.13;4.72;;;;;;;15.55;100.00;94253.41;5121230;27;20030;-83
2023/05/20 07:14:02;;;;;;;8.48;5.05;;;;;;;15.80;100.00;94254.63;5139411;27;20057;-83
2023/05/20 07:16:28;;;;;;;7.90;4.72;;;;;;;15.31;100.00;94256.38;5120997;27;20023;-83
2023/05/20 07:18:53;;;;;;;10.07;5.60;;;;;;;15.38;100.00;94264.63;5139477;27;20416;-83
2023/05/20 07:21:19;;;;;;;14.43;5.13;;;;;;;15.13;100.00;94264.13;5120963;27;20027;-83
2023/05/20 07:23:45;;;;;;;7.90;4.78;;;;;;;14.90;100.00;94261.47;5120945;27;20023;-84
2023/05/20 07:26:10;;;;;;;8.90;5.30;;;;;;;15.04;100.00;94266.69;5120995;27;20077;-83
2023/05/20 07:28:36;;;;;;;11.40;6.03;;;;;;;15.36;100.00;94270.22;5120938;27;20027;-83
2023/05/20 07:31:02;;;;;;;12.23;5.43;;;;;;;15.03;100.00;94265.13;5120823;27;20095;-83
2023/05/20 07:33:28;;;;;;;9.68;5.93;;;;;;;14.84;100.00;94252.09;5138962;27;20436;-83
2023/05/20 07:35:54;;;;;;;9.23;5.22;;;;;;;15.69;100.00;94242.75;5120647;27;20047;-83
2023/05/20 07:38:20;;;;;;;9.80;5.28;;;;;;;15.68;100.00;94252.56;5120731;27;20027;-83
2023/05/20 07:40:45;;;;;;;9.55;5.50;;;;;;;15.17;100.00;94248.47;5120391;27;20087;-84
2023/05/20 07:43:11;;;;;;;8.60;5.15;;;;;;;15.83;100.00;94251.38;5117274;28;20032;-84
2023/05/20 07:45:36;;;;;;;7.45;4.97;;;;;;;16.02;100.00;94254.94;5103263;27;20035;-83
2023/05/20 07:48:02;;;;;;;6.82;4.60;;;;;;;15.68;100.00;94260.50;5117054;28;20069;-83
2023/05/20 07:50:28;;;;;;;7.38;4.72;;;;;;;15.91;100.00;94265.75;5117221;28;20394;-83
2023/05/20 07:52:53;;;;;;;6.72;4.63;;;;;;;15.74;100.00;94268.28;5100519;27;20027;-84
2023/05/20 07:55:21;;;;;;;5.97;4.13;;;;;;;15.82;100.00;94255.13;5085921;28;20031;-84
2023/05/20 07:57:46;;;;;;;5.00;3.63;;;;;;;16.08;100.00;94259.00;5100281;28;20344;-84
2023/05/20 08:00:13;;;;;;;5.00;3.30;;;;;;;16.05;100.00;94256.97;5083164;28;20031;-84
2023/05/20 08:02:41;;;;;;;5.40;3.70;;;;;;;15.73;100.00;94253.50;5100094;28;20047;-83
2023/05/20 08:05:07;;;;;;;8.20;3.17;;;;;;;16.02;100.00;94245.16;5117908;28;20027;-83
2023/05/20 08:07:33;;;;;;;5.82;3.67;;;;;;;15.34;100.00;94242.56;5083137;28;20080;-83
2023/05/20 08:10:00;;;;;;;4.20;3.17;;;;;;;15.52;100.00;94244.22;5099640;28;20031;-83
2023/05/20 08:12:26;;;;;;;6.20;3.08;;;;;;;15.38;100.00;94249.59;5126557;27;20389;-83
2023/05/20 08:14:53;;;;;;;4.53;3.35;;;;;;;15.67;100.00;94252.84;5116514;28;20126;-83
2023/05/20 08:17:20;;;;;;;5.20;3.03;;;;;;;15.73;100.00;94243.75;5116484;28;20028;-82
2023/05/20 08:19:46;;;;;;;5.80;3.45;;;;;;;15.52;100.00;94246.09;5135613;27;20027;-83
2023/05/20 08:22:11;;;;;;;5.93;3.47;;;;;;;15.38;100.00;94249.59;5121380;27;20425;-83
2023/05/20 08:24:38;;;;;;;11.15;3.53;;;;;;;14.98;100.00;94257.34;5124276;27;20376;-83
2023/05/20 08:27:06;;;;;;;4.18;2.85;;;;;;;14.97;100.00;94250.50;5123397;27;20023;-84
2023/05/20 08:29:35;;;;;;;4.32;2.88;;;;;;;15.02;100.00;94250.38;5125901;27;20505;-83
2023/05/20 08:32:00;;;;;;;4.15;2.80;;;;;;;15.18;100.00;94244.75;5099547;28;20115;-83
2023/05/20 08:34:26;;;;;;;5.13;3.13;;;;;;;15.44;100.00;94246.81;5121924;27;20062;-83
2023/05/20 08:36:51;;;;;;;4.70;3.08;;;;;;;15.22;100.00;94243.88;5140401;27;20033;-83
2023/05/20 08:39:17;;;;;;;4.78;3.28;;;;;;;15.47;100.00;94235.66;5113724;28;20035;-84
2023/05/20 08:41:44;;;;;;;4.63;2.63;;;;;;;15.92;100.00;94234.84;5097333;28;20042;-82
2023/05/20 08:44:12;;;;;;;4.57;2.97;;;;;;;15.52;100.00;94232.91;5114082;28;20599;-84
2023/05/20 08:46:38;;;;;;;5.32;3.13;;;;;;;15.92;100.00;94235.63;5115063;28;20043;-83
2023/05/20 08:49:05;;;;;;;6.80;4.55;;;;;;;15.59;100.00;94237.75;5114461;28;20084;-83
2023/05/20 08:51:35;;;;;;;5.72;2.72;;;;;;;16.12;100.00;94236.16;5115996;28;20458;-83
2023/05/20 08:54:06;;;;;;;5.68;3.95;;;;;;;16.23;100.00;94229.53;5117058;28;20371;-83
2023/05/20 08:56:41;;;;;;;7.20;4.05;;;;;;;16.11;100.00;94229.31;5116088;28;20068;-83
2023/05/20 08:59:09;;;;;;;7.00;4.10;;;;;;;16.21;100.00;94223.78;5116058;28;20028;-83
2023/05/20 09:02:02;;;;;;;6.50;4.32;;;;;;;16.69;100.00;94221.38;5099048;28;20432;-84
2023/05/20 09:04:37;;;;;;;;;;;;;;;;;;;;;
2023/05/20 09:07:03;;;;;;;10.85;7.10;;;;;;;15.83;100.00;94219.69;5103833;28;20030;-81
2023/05/20 09:09:29;;;;;;;11.80;7.47;;;;;;;16.25;100.00;94206.22;5099172;28;20385;-83
2023/05/20 09:11:55;;;;;;;11.02;7.15;;;;;;;16.09;100.00;94218.28;5122699;28;20065;-83
2023/05/20 09:14:20;;;;;;;11.07;7.22;;;;;;;15.58;100.00;94212.44;5137314;28;20062;-84
2023/05/20 09:16:52;;;;;;;13.02;8.38;;;;;;;15.66;100.00;94222.25;5119136;28;20027;-83
2023/05/20 09:19:22;;;;;;;14.80;8.65;;;;;;;16.00;100.00;94217.47;5137494;28;20035;-83
2023/05/20 09:21:48;;;;;;;16.55;10.02;;;;;;;15.14;100.00;94215.56;5119295;28;20034;-83
2023/05/20 09:24:13;;;;;;;18.02;10.98;;;;;;;15.33;100.00;94215.38;5137386;28;20027;-83
2023/05/20 09:26:38;;;;;;;21.58;12.10;;;;;;;15.39;100.00;94219.47;5124895;27;20031;-83
2023/05/20 09:29:04;;;;;;;19.80;11.55;;;;;;;15.18;100.00;94224.44;5125490;28;20027;-83
2023/05/20 09:31:32;;;;;;;21.58;11.30;;;;;;;15.59;100.00;94217.41;5101969;28;20027;-83
2023/05/20 09:33:59;;;;;;;24.42;13.35;;;;;;;15.37;100.00;94218.19;5137303;28;20072;-83
2023/05/20 09:36:30;;;;;;;21.17;13.35;;;;;;;15.81;100.00;94218.44;5118784;28;20134;-83
2023/05/20 09:39:02;;;;;;;24.77;14.38;;;;;;;15.39;100.00;94216.03;5119201;27;20050;-83
2023/05/20 09:41:32;;;;;;;29.52;14.73;;;;;;;15.19;100.00;94220.72;5140415;27;20080;-83
2023/05/20 09:43:59;;;;;;;30.75;16.38;;;;;;;14.76;100.00;94218.53;5122616;27;20019;-83
2023/05/20 09:46:25;;;;;;;28.50;15.80;;;;;;;15.08;100.00;94209.63;5122735;27;20027;-83
2023/05/20 09:48:51;;;;;;;33.47;17.58;;;;;;;14.89;100.00;94211.63;5141044;27;20479;-83
2023/05/20 09:51:17;;;;;;;32.75;18.30;;;;;;;15.34;100.00;94206.38;5122909;27;20067;-84
2023/05/20 09:53:42;;;;;;;33.80;18.95;;;;;;;14.64;100.00;94203.97;5141089;27;20027;-82
2023/05/20 09:56:08;;;;;;;36.65;19.40;;;;;;;14.82;100.00;94202.28;5106208;28;20024;-83
2023/05/20 09:58:35;;;;;;;39.80;18.35;;;;;;;14.99;100.00;94208.78;5107048;27;20030;-83
2023/05/20 10:01:00;;;;;;;43.35;19.13;;;;;;;15.23;100.00;94211.13;5111690;28;20030;-83
2023/05/20 10:03:26;;;;;;;36.60;20.52;;;;;;;14.93;100.00;94212.63;5124524;27;20019;-83
2023/05/20 10:06:22;;;;;;;32.28;18.23;;;;;;;15.36;100.00;94216.63;5108909;27;20115;-83
2023/05/20 10:09:18;;;;;;;33.65;19.30;;;;;;;15.23;100.00;94221.69;5105035;28;20028;-83
2023/05/20 10:12:08;;;;;;;33.08;18.70;;;;;;;15.06;100.00;94218.91;5132334;27;20031;-83
2023/05/20 10:14:49;;;;;;;37.25;19.88;;;;;;;14.69;100.00;94213.63;5122475;27;20035;-83
2023/05/20 10:17:45;;;;;;;39.00;20.65;;;;;;;15.32;100.00;94218.31;5140392;27;20023;-83
2023/05/20 10:20:11;;;;;;;37.90;20.45;;;;;;;14.85;100.00;94224.66;5096557;27;20041;-83
2023/05/20 10:22:38;;;;;;;37.25;20.88;;;;;;;15.04;100.00;94227.13;5119911;28;20023;-83
2023/05/20 10:25:08;;;;;;;42.90;22.33;;;;;;;14.86;100.00;94233.34;5101802;28;20031;-83
2023/05/20 10:27:46;;;;;;;40.53;21.77;;;;;;;15.34;100.00;94234.63;5102234;28;20031;-83
2023/05/20 10:30:19;;;;;;;41.55;22.75;;;;;;;15.08;100.00;94230.75;5088869;28;20081;-83
2023/05/20 10:32:56;;;;;;;39.33;22.20;;;;;;;14.86;100.00;94234.13;5101608;28;20024;-83
2023/05/20 10:35:25;;;;;;;38.90;22.33;;;;;;;15.02;100.00;94223.25;5101900;28;20024;-83
2023/05/20 10:37:51;;;;;;;39.65;22.35;;;;;;;15.15;100.00;94218.97;5101730;28;20129;-83
2023/05/20 10:40:19;;;;;;;34.33;20.48;;;;;;;15.06;100.00;94219.72;5119970;28;20110;-83
2023/05/20 10:42:45;;;;;;;35.00;19.95;;;;;;;14.96;100.00;94212.78;5101265;28;20016;-83
2023/05/20 10:45:11;;;;;;;45.88;23.92;;;;;;;15.00;100.00;94209.56;5101112;28;20024;-81
2023/05/20 10:47:41;;;;;;;38.28;21.27;;;;;;;15.09;100.00;94210.41;5119606;28;20030;-83
2023/05/20 10:50:07;;;;;;;35.10;20.48;;;;;;;15.39;100.00;94218.66;5101429;28;20024;-83
2023/05/20 10:52:35;;;;;;;39.35;21.17;;;;;;;14.74;100.00;94210.13;5118965;28;20035;-83
2023/05/20 10:55:00;;;;;;;40.92;23.40;;;;;;;14.92;100.00;94200.47;5101204;28;20076;-82
2023/05/20 10:57:27;;;;;;;40.25;22.67;;;;;;;15.28;100.00;94210.22;5119230;28;20424;-81
2023/05/20 10:59:53;;;;;;;42.97;23.58;;;;;;;15.47;100.00;94201.31;5101131;28;20024;-83
2023/05/20 11:02:25;;;;;;;45.90;25.48;;;;;;;15.44;100.00;94205.38;5086538;27;20030;-84
2023/05/20 11:04:50;;;;;;;44.63;23.55;;;;;;;14.89;100.00;94196.59;5105363;27;20027;-84
2023/05/20 11:07:30;;;;;;;41.50;23.85;;;;;;;15.56;100.00;94204.81;5104629;27;20023;-83
2023/05/20 11:09:56;;;;;;;44.58;25.15;;;;;;;15.21;100.00;94213.28;5104328;27;20019;-84
2023/05/20 11:12:26;;;;;;;47.63;25.73;;;;;;;15.62;100.00;94216.78;5104295;27;20055;-83
2023/05/20 11:14:52;;;;;;;48.67;24.23;;;;;;;15.34;100.00;94216.94;5120623;27;20313;-82
2023/05/20 11:17:18;;;;;;;51.28;25.15;;;;;;;15.32;100.00;94208.53;5104448;27;20033;-83